Time;durP1;ratioP1;P1;durP2;ratioP2;P2;SDS_P1;SDS_P2;PMS_P1;PMS_P2;Temp;Humidity;BMP_temperature;BMP_pressure;BME280_temperature;BME280_humidity;BME280_pressure;Samples;Min_cycle;Max_cycle;Signal;HPM_P1;HPM_P2
2022/10/05 00:00:47;;;;;;;;;;;8.80;99.90;;;;;;5070659;28;20420;-51
2022/10/05 00:03:13;;;;;;;;;;;8.80;99.90;;;;;;5070227;28;19943;-51
2022/10/05 00:05:40;;;;;;;;;;;8.80;99.90;;;;;;5070813;28;20019;-54
2022/10/05 00:08:11;;;;;;;;;;;8.80;99.90;;;;;;5071291;28;19966;-53
2022/10/05 00:10:40;;;;;;;;;;;8.80;99.90;;;;;;5071372;28;20353;-51
2022/10/05 00:13:23;;;;;;;;;;;8.70;99.90;;;;;;5070411;28;19928;-52
2022/10/05 00:15:56;;;;;;;;;;;8.70;99.90;;;;;;5070760;28;19971;-54
2022/10/05 00:18:22;;;;;;;;;;;8.60;99.90;;;;;;5070546;28;19964;-53
2022/10/05 00:20:49;;;;;;;;;;;8.50;99.90;;;;;;5084332;28;20010;-53
2022/10/05 00:23:21;;;;;;;;;;;8.60;99.90;;;;;;5071817;28;19959;-53
2022/10/05 00:25:48;;;;;;;;;;;8.70;99.90;;;;;;5070320;28;20443;-51
2022/10/05 00:28:25;;;;;;;;;;;8.70;99.90;;;;;;5072619;28;19952;-53
2022/10/05 00:30:56;;;;;;;;;;;8.60;99.90;;;;;;5090613;28;19920;-51
2022/10/05 00:33:22;;;;;;;;;;;8.60;99.90;;;;;;5073488;28;19966;-54
2022/10/05 00:35:49;;;;;;;;;;;8.60;99.90;;;;;;5078805;28;19967;-51
2022/10/05 00:38:16;;;;;;;;;;;8.60;99.90;;;;;;5081107;28;19948;-51
2022/10/05 00:41:03;;;;;;;;;;;8.60;99.90;;;;;;5088911;28;20331;-51
2022/10/05 00:43:42;;;;;;;;;;;8.70;99.90;;;;;;5105529;28;19920;-51
2022/10/05 00:46:18;;;;;;;;;;;8.70;99.90;;;;;;5082460;28;19952;-54
2022/10/05 00:48:48;;;;;;;;;;;8.60;99.90;;;;;;5089636;28;20010;-56
2022/10/05 00:51:18;;;;;;;;;;;8.60;99.90;;;;;;5089935;28;19920;-52
2022/10/05 00:53:53;;;;;;;;;;;8.50;99.90;;;;;;5074638;28;20252;-52
2022/10/05 00:56:32;;;;;;;;;;;8.50;99.90;;;;;;5071407;28;19978;-54
2022/10/05 00:59:09;;;;;;;;;;;8.40;99.90;;;;;;5069947;28;19928;-52
2022/10/05 01:01:39;;;;;;;;;;;8.30;99.90;;;;;;5082432;28;19920;-52
2022/10/05 01:04:14;;;;;;;;;;;8.20;99.90;;;;;;5086981;28;20341;-52
2022/10/05 01:06:41;;;;;;;;;;;8.20;99.90;;;;;;5091280;28;19955;-53
2022/10/05 01:09:22;;;;;;;;;;;8.20;99.90;;;;;;5098149;28;19926;-52
2022/10/05 01:12:05;;;;;;;;;;;8.10;99.90;;;;;;5070699;28;20131;-52
2022/10/05 01:14:49;;;;;;;;;;;8.10;99.90;;;;;;5076964;28;19920;-54
2022/10/05 01:17:21;;;;;;;;;;;8.10;99.90;;;;;;5079596;28;19920;-53
2022/10/05 01:20:06;;;;;;;;;;;8.00;99.90;;;;;;5090185;28;19920;-51
2022/10/05 01:22:41;;;;;;;;;;;8.10;99.90;;;;;;5089277;28;19927;-53
2022/10/05 01:25:19;;;;;;;;;;;8.00;99.90;;;;;;5088631;28;19985;-53
2022/10/05 01:27:56;;;;;;;;;;;8.10;99.90;;;;;;5073929;28;19974;-52
2022/10/05 01:30:23;;;;;;;;;;;8.10;99.90;;;;;;5075562;28;19921;-52
2022/10/05 01:32:53;;;;;;;;;;;8.10;99.90;;;;;;5092550;28;19924;-50
2022/10/05 01:35:19;;;;;;;;;;;8.20;99.90;;;;;;5094013;28;20533;-53
2022/10/05 01:37:53;;;;;;;;;;;8.20;99.90;;;;;;5093478;28;20324;-52
2022/10/05 01:40:44;;;;;;;;;;;8.20;99.90;;;;;;5086878;28;20371;-50
2022/10/05 01:43:11;;;;;;;;;;;8.20;99.90;;;;;;5094263;28;19927;-52
2022/10/05 01:45:52;;;;;;;;;;;8.20;99.90;;;;;;5094030;28;19920;-54
2022/10/05 01:48:19;;;;;;;;;;;8.20;99.90;;;;;;5084579;28;19921;-51
2022/10/05 01:51:04;;;;;;;;;;;8.20;99.90;;;;;;5076605;28;19982;-50
2022/10/05 01:53:46;;;;;;;;;;;8.30;99.90;;;;;;5071477;28;19970;-53
2022/10/05 01:56:32;;;;;;;;;;;8.30;99.90;;;;;;5072953;28;20300;-51
2022/10/05 01:59:05;;;;;;;;;;;8.30;99.90;;;;;;5094531;28;19920;-51
2022/10/05 02:01:44;;;;;;;;;;;8.30;99.90;;;;;;5081769;28;20324;-51
2022/10/05 02:04:10;;;;;;;;;;;8.30;99.90;;;;;;5072463;28;20399;-53
2022/10/05 02:06:46;;;;;;;;;;;8.30;99.90;;;;;;5094853;28;19959;-53
2022/10/05 02:09:23;;;;;;;;;;;8.40;99.90;;;;;;5073737;28;19924;-53
2022/10/05 02:11:53;;;;;;;;;;;8.40;99.90;;;;;;5073323;28;19967;-51
2022/10/05 02:14:23;;;;;;;;;;;8.40;99.90;;;;;;5073098;28;20442;-51
2022/10/05 02:16:51;;;;;;;;;;;8.40;99.90;;;;;;5079791;22;19935;-49
2022/10/05 02:19:34;;;;;;;;;;;8.40;99.90;;;;;;5079650;28;20607;-52
2022/10/05 02:22:06;;;;;;;;;;;8.40;99.90;;;;;;5092186;28;20014;-52
2022/10/05 02:24:41;;;;;;;;;;;8.40;99.90;;;;;;5088272;28;20383;-51
2022/10/05 02:27:09;;;;;;;;;;;8.40;99.90;;;;;;5072188;28;20482;-50
2022/10/05 02:29:40;;;;;;;;;;;8.30;99.90;;;;;;5056971;28;19924;-48
2022/10/05 02:32:12;;;;;;;;;;;8.30;99.90;;;;;;5073189;28;19935;-50
2022/10/05 02:34:40;;;;;;;;;;;8.20;99.90;;;;;;5054848;28;20335;-52
2022/10/05 02:37:26;;;;;;;;;;;8.20;99.90;;;;;;5078651;28;20010;-51
2022/10/05 02:39:56;;;;;;;;;;;8.10;99.90;;;;;;5069281;28;19928;-51
2022/10/05 02:42:29;;;;;;;;;;;8.10;99.90;;;;;;5063475;28;19970;-49
2022/10/05 02:45:06;;;;;;;;;;;8.00;99.90;;;;;;5068097;28;19920;-49
2022/10/05 02:47:32;;;;;;;;;;;8.00;99.90;;;;;;5075402;28;19924;-49
2022/10/05 02:50:06;;;;;;;;;;;8.00;99.90;;;;;;5074328;28;19980;-52
2022/10/05 02:52:51;;;;;;;;;;;8.00;99.90;;;;;;5062916;28;19920;-52
2022/10/05 02:55:20;;;;;;;;;;;7.90;99.90;;;;;;5069061;28;19932;-50
2022/10/05 02:58:02;;;;;;;;;;;7.90;99.90;;;;;;5054463;28;19920;-51
2022/10/05 03:00:35;;;;;;;;;;;7.90;99.90;;;;;;5054644;28;20015;-52
2022/10/05 03:03:09;;;;;;;;;;;7.90;99.90;;;;;;5055591;28;19955;-51
2022/10/05 03:05:42;;;;;;;;;;;7.90;99.90;;;;;;5066559;28;19920;-51
2022/10/05 03:08:16;;;;;;;;;;;8.00;99.90;;;;;;5054047;28;19942;-54
2022/10/05 03:11:07;;;;;;;;;;;8.00;99.90;;;;;;5058732;28;20018;-54
2022/10/05 03:13:49;;;;;;;;;;;8.10;99.90;;;;;;5044802;28;19982;-51
2022/10/05 03:16:36;;;;;;;;;;;8.10;99.90;;;;;;5055286;28;19959;-53
2022/10/05 03:19:13;;;;;;;;;;;8.10;99.90;;;;;;5075808;28;19970;-51
2022/10/05 03:21:40;;;;;;;;;;;8.00;99.90;;;;;;5067451;28;19927;-50
2022/10/05 03:24:08;;;;;;;;;;;8.10;99.90;;;;;;5081456;28;19963;-52
2022/10/05 03:26:44;;;;;;;;;;;8.20;99.90;;;;;;5073107;28;19920;-54
2022/10/05 03:29:30;;;;;;;;;;;8.00;99.90;;;;;;5056573;28;20426;-51
2022/10/05 03:32:15;;;;;;;;;;;8.00;99.90;;;;;;5066316;28;19924;-51
2022/10/05 03:34:58;;;;;;;;;;;8.00;99.90;;;;;;5063480;28;19928;-53
2022/10/05 03:37:28;;;;;;;;;;;8.00;99.90;;;;;;5085983;28;19920;-51
2022/10/05 03:40:08;;;;;;;;;;;7.90;99.90;;;;;;5058205;28;19923;-51
2022/10/05 03:42:39;;;;;;;;;;;7.90;99.90;;;;;;5067619;28;20450;-53
2022/10/05 03:45:13;;;;;;;;;;;7.90;99.90;;;;;;5085727;28;20270;-53
2022/10/05 03:47:50;;;;;;;;;;;7.90;99.90;;;;;;5079961;28;20338;-52
2022/10/05 03:50:17;;;;;;;;;;;7.90;99.90;;;;;;5068350;28;19920;-50
2022/10/05 03:52:46;;;;;;;;;;;7.90;99.90;;;;;;5072154;28;19973;-50
2022/10/05 03:55:19;;;;;;;;;;;7.90;99.90;;;;;;5058220;28;19920;-50
2022/10/05 03:57:47;;;;;;;;;;;7.90;99.90;;;;;;5060415;28;19921;-50
2022/10/05 04:00:24;;;;;;;;;;;7.90;99.90;;;;;;5071660;28;19920;-52
2022/10/05 04:03:11;;;;;;;;;;;7.90;99.90;;;;;;5064964;28;20419;-50
2022/10/05 04:05:49;;;;;;;;;;;7.80;99.90;;;;;;5060089;28;19924;-49
2022/10/05 04:08:34;;;;;;;;;;;7.80;99.90;;;;;;5073512;28;19928;-50
2022/10/05 04:11:04;;;;;;;;;;;7.80;99.90;;;;;;5072491;28;20380;-50
2022/10/05 04:13:35;;;;;;;;;;;7.80;99.90;;;;;;5073652;28;19920;-53
2022/10/05 04:16:10;;;;;;;;;;;7.70;99.90;;;;;;5068311;28;19927;-54
2022/10/05 04:18:57;;;;;;;;;;;7.70;99.90;;;;;;5074141;28;19939;-50
2022/10/05 04:21:39;;;;;;;;;;;7.70;99.90;;;;;;5062709;28;19946;-52
2022/10/05 04:24:17;;;;;;;;;;;7.70;99.90;;;;;;5067540;28;19955;-50
2022/10/05 04:26:50;;;;;;;;;;;7.70;99.90;;;;;;5063767;28;20012;-53
2022/10/05 04:29:20;;;;;;;;;;;7.70;99.90;;;;;;5079683;28;19920;-50
2022/10/05 04:31:54;;;;;;;;;;;7.60;99.90;;;;;;5064428;28;19927;-49
2022/10/05 04:34:21;;;;;;;;;;;7.60;99.90;;;;;;5072332;28;20019;-50
2022/10/05 04:36:53;;;;;;;;;;;7.60;99.90;;;;;;5086464;28;19962;-51
2022/10/05 04:39:44;;;;;;;;;;;7.50;99.90;;;;;;5070064;28;19920;-51
2022/10/05 04:42:11;;;;;;;;;;;7.50;99.90;;;;;;5027879;28;19928;-51
2022/10/05 04:44:47;;;;;;;;;;;7.80;99.90;;;;;;5061421;28;20269;-51
2022/10/05 04:47:14;;;;;;;;;;;7.50;99.90;;;;;;5078977;28;19924;-51
2022/10/05 04:49:49;;;;;;;;;;;7.40;99.90;;;;;;5074374;28;19920;-50
2022/10/05 04:52:19;;;;;;;;;;;7.40;99.90;;;;;;5077448;28;19920;-52
2022/10/05 04:54:55;;;;;;;;;;;7.30;99.90;;;;;;5067607;28;19920;-50
2022/10/05 04:57:31;;;;;;;;;;;7.30;99.90;;;;;;5078802;28;19919;-53
2022/10/05 05:00:04;;;;;;;;;;;7.30;99.90;;;;;;5059676;28;19924;-52
2022/10/05 05:02:33;;;;;;;;;;;7.40;99.90;;;;;;5083835;28;19931;-50
2022/10/05 05:05:15;;;;;;;;;;;7.40;99.90;;;;;;5081575;28;19927;-51
2022/10/05 05:07:54;;;;;;;;;;;7.40;99.90;;;;;;5085286;28;19925;-49
2022/10/05 05:10:21;;;;;;;;;;;7.40;99.90;;;;;;5068165;28;20380;-55
2022/10/05 05:13:09;;;;;;;;;;;7.50;99.90;;;;;;5073477;28;19920;-50
2022/10/05 05:15:36;;;;;;;;;;;7.50;99.90;;;;;;5075734;28;19924;-51
2022/10/05 05:18:02;;;;;;;;;;;7.50;99.90;;;;;;5088250;28;19924;-51
2022/10/05 05:20:40;;;;;;;;;;;7.40;99.90;;;;;;5082652;28;20257;-50
2022/10/05 05:23:07;;;;;;;;;;;7.40;99.90;;;;;;5063865;28;19924;-50
2022/10/05 05:25:45;;;;;;;;;;;7.40;99.90;;;;;;5058521;28;20006;-51
2022/10/05 05:28:34;;;;;;;;;;;7.40;99.90;;;;;;5082266;28;19920;-51
2022/10/05 05:31:08;;;;;;;;;;;7.40;99.90;;;;;;5064022;28;19924;-50
2022/10/05 05:33:42;;;;;;;;;;;7.50;99.90;;;;;;5066029;28;19978;-53
2022/10/05 05:36:09;;;;;;;;;;;7.50;99.90;;;;;;5075264;28;19927;-49
2022/10/05 05:38:36;;;;;;;;;;;7.50;99.90;;;;;;5068430;28;19927;-49
2022/10/05 05:41:08;;;;;;;;;;;7.50;99.90;;;;;;5076810;28;20368;-50
2022/10/05 05:43:55;;;;;;;;;;;7.60;99.90;;;;;;5062077;28;19964;-50
2022/10/05 05:46:25;;;;;;;;;;;7.60;99.90;;;;;;5087920;28;19931;-49
2022/10/05 05:49:23;;;;;;;;;;;7.50;99.90;;;;;;5072231;28;19924;-49
2022/10/05 05:52:13;;;;;;;;;;;7.60;99.90;;;;;;5072905;28;19924;-51
2022/10/05 05:54:41;;;;;;;;;;;7.60;99.90;;;;;;5054351;28;19969;-50
2022/10/05 05:57:17;;;;;;;;;;;7.60;99.90;;;;;;5074741;28;19924;-53
2022/10/05 05:59:51;;;;;;;;;;;7.60;99.90;;;;;;5072269;28;19967;-51
2022/10/05 06:02:20;;;;;;;;;;;7.60;99.90;;;;;;5069823;28;20439;-51
2022/10/05 06:04:53;;;;;;;;;;;7.60;99.90;;;;;;5073085;28;19924;-49
2022/10/05 06:07:23;;;;;;;;;;;7.60;99.90;;;;;;5055470;28;19924;-49
2022/10/05 06:10:03;;;;;;;;;;;7.60;99.90;;;;;;5060081;28;20277;-50
2022/10/05 06:12:45;;;;;;;;;;;7.60;99.90;;;;;;5085765;28;19927;-49
2022/10/05 06:15:26;;;;;;;;;;;7.70;99.90;;;;;;5075446;28;19920;-50
2022/10/05 06:17:54;;;;;;;;;;;7.60;99.90;;;;;;5075434;28;20098;-52
2022/10/05 06:20:28;;;;;;;;;;;7.60;99.90;;;;;;5072738;28;20001;-51
2022/10/05 06:22:58;;;;;;;;;;;7.60;99.90;;;;;;5056220;28;20291;-49
2022/10/05 06:25:36;;;;;;;;;;;7.70;99.90;;;;;;5084692;28;19934;-52
2022/10/05 06:28:10;;;;;;;;;;;7.80;99.90;;;;;;5093799;28;19920;-51
2022/10/05 06:30:59;;;;;;;;;;;7.80;99.90;;;;;;5068919;28;19977;-50
2022/10/05 06:33:41;;;;;;;;;;;7.80;99.90;;;;;;5061400;28;20015;-51
2022/10/05 06:36:08;;;;;;;;;;;7.80;99.90;;;;;;5074417;28;19920;-51
2022/10/05 06:38:54;;;;;;;;;;;7.80;99.90;;;;;;5091177;28;19920;-53
2022/10/05 06:41:31;;;;;;;;;;;7.80;99.90;;;;;;5060627;28;19935;-53
2022/10/05 06:44:09;;;;;;;;;;;7.90;99.90;;;;;;5071750;28;20021;-52
2022/10/05 06:46:57;;;;;;;;;;;8.10;99.90;;;;;;5062482;28;19921;-51
2022/10/05 06:49:54;;;;;;;;;;;8.20;99.90;;;;;;5084497;28;20395;-50
2022/10/05 06:52:41;;;;;;;;;;;8.40;99.90;;;;;;5067597;28;19985;-52
2022/10/05 06:55:14;;;;;;;;;;;8.40;99.90;;;;;;5091485;28;19920;-49
2022/10/05 06:57:47;;;;;;;;;;;8.50;99.90;;;;;;5075466;28;19927;-50
2022/10/05 07:00:20;;;;;;;;;;;8.60;99.90;;;;;;5072480;28;20391;-54
2022/10/05 07:02:55;;;;;;;;;;;8.70;99.90;;;;;;5060580;28;19951;-51
2022/10/05 07:05:21;;;;;;;;;;;8.90;99.90;;;;;;5072093;28;19920;-53
2022/10/05 07:07:52;;;;;;;;;;;8.90;99.90;;;;;;5091700;28;19927;-53
2022/10/05 07:10:39;;;;;;;;;;;9.00;99.90;;;;;;5058687;28;20426;-51
2022/10/05 07:13:14;;;;;;;;;;;9.10;99.90;;;;;;5054400;28;19920;-51
2022/10/05 07:15:44;;;;;;;;;;;9.30;99.90;;;;;;5077685;28;19928;-51
2022/10/05 07:18:15;;;;;;;;;;;9.40;99.90;;;;;;5069801;28;19924;-50
2022/10/05 07:20:46;;;;;;;;;;;9.50;99.90;;;;;;5054784;28;19921;-52
2022/10/05 07:23:23;;;;;;;;;;;9.60;99.90;;;;;;5056285;28;19927;-50
2022/10/05 07:25:58;;;;;;;;;;;9.70;99.90;;;;;;5065220;28;19955;-50
2022/10/05 07:28:46;;;;;;;;;;;9.90;99.90;;;;;;5056930;28;19928;-50
2022/10/05 07:31:28;;;;;;;;;;;10.00;99.90;;;;;;5060239;28;19920;-51
2022/10/05 07:33:59;;;;;;;;;;;10.00;99.90;;;;;;5057969;28;20015;-52
2022/10/05 07:40:03;;;;;;;;;;;10.20;99.90;;;;;;5014547;28;19921;-50
2022/10/05 07:42:39;;;;;;;;;;;10.20;99.90;;;;;;4992760;28;20337;-52
2022/10/05 07:45:37;;;;;;;;;;;10.30;99.90;;;;;;5060890;28;19951;-51
2022/10/05 07:48:11;;;;;;;;;;;10.40;99.90;;;;;;5070250;28;20330;-50
2022/10/05 07:50:42;;;;;;;;;;;10.60;99.90;;;;;;5077513;28;20289;-53
2022/10/05 07:53:14;;;;;;;;;;;10.70;99.90;;;;;;5050562;28;19953;-52
2022/10/05 07:55:45;;;;;;;;;;;10.90;99.90;;;;;;5070065;28;19924;-50
2022/10/05 07:58:23;;;;;;;;;;;11.00;99.90;;;;;;5070701;28;19920;-54
2022/10/05 08:00:51;;;;;;;;;;;11.10;99.90;;;;;;5072786;28;19931;-51
2022/10/05 08:03:30;;;;;;;;;;;11.20;99.90;;;;;;5072657;28;19927;-50
2022/10/05 08:05:58;;;;;;;;;;;11.30;99.90;;;;;;5092548;28;20285;-52
2022/10/05 08:08:43;;;;;;;;;;;11.50;99.90;;;;;;5080651;28;19959;-50
2022/10/05 08:11:13;;;;;;;;;;;11.50;99.90;;;;;;5089221;28;20368;-51
2022/10/05 08:13:52;;;;;;;;;;;11.50;99.90;;;;;;5090364;28;20686;-50
2022/10/05 08:16:20;;;;;;;;;;;11.50;99.90;;;;;;5105021;22;19961;-51
2022/10/05 08:18:55;;;;;;;;;;;11.70;99.90;;;;;;5084026;28;19919;-49
2022/10/05 08:21:26;;;;;;;;;;;11.70;99.90;;;;;;5091420;28;19931;-50
2022/10/05 08:24:03;;;;;;;;;;;11.70;99.90;;;;;;5090384;28;19966;-52
2022/10/05 08:26:42;;;;;;;;;;;11.80;99.90;;;;;;5089903;28;20018;-53
2022/10/05 08:29:09;;;;;;;;;;;11.90;99.90;;;;;;5087057;28;20014;-51
2022/10/05 08:31:40;;;;;;;;;;;12.00;99.90;;;;;;5090713;28;19920;-51
2022/10/05 08:34:29;;;;;;;;;;;12.10;99.90;;;;;;5090598;28;20002;-50
2022/10/05 08:37:03;;;;;;;;;;;12.30;99.90;;;;;;5088617;28;20001;-53
2022/10/05 08:39:39;;;;;;;;;;;12.40;99.90;;;;;;5091683;28;19924;-52
2022/10/05 08:42:17;;;;;;;;;;;12.60;99.90;;;;;;5082718;28;19942;-50
2022/10/05 08:44:56;;;;;;;;;;;12.70;99.90;;;;;;5091090;28;19966;-51
2022/10/05 08:47:36;;;;;;;;;;;12.80;99.90;;;;;;5090628;28;19943;-51
2022/10/05 08:50:21;;;;;;;;;;;13.00;99.90;;;;;;5090261;28;20318;-52
2022/10/05 08:52:51;;;;;;;;;;;13.00;99.90;;;;;;5088985;28;20651;-53
2022/10/05 08:55:37;;;;;;;;;;;13.00;99.90;;;;;;5090014;28;19963;-55
2022/10/05 08:58:15;;;;;;;;;;;13.20;99.90;;;;;;5090373;28;19955;-51
2022/10/05 09:00:45;;;;;;;;;;;13.30;99.90;;;;;;5090087;28;20438;-52
2022/10/05 09:03:12;;;;;;;;;;;13.40;99.90;;;;;;5089385;28;19962;-53
2022/10/05 09:05:57;;;;;;;;;;;13.40;99.90;;;;;;5089906;28;20042;-51
2022/10/05 09:08:33;;;;;;;;;;;13.60;99.90;;;;;;5091570;28;19920;-49
2022/10/05 09:11:20;;;;;;;;;;;13.80;99.90;;;;;;5089161;28;19920;-49
2022/10/05 09:14:06;;;;;;;;;;;14.00;99.90;;;;;;5070562;28;19920;-54
2022/10/05 09:16:42;;;;;;;;;;;14.00;99.90;;;;;;5087788;28;20094;-50
2022/10/05 09:19:27;;;;;;;;;;;14.10;99.90;;;;;;5090749;28;19970;-53
2022/10/05 09:21:54;;;;;;;;;;;14.30;99.90;;;;;;5070208;28;19921;-50
2022/10/05 09:24:33;;;;;;;;;;;14.40;99.90;;;;;;5071022;28;20340;-51
2022/10/05 09:27:12;;;;;;;;;;;14.50;99.90;;;;;;5090797;28;19920;-51
2022/10/05 09:30:04;;;;;;;;;;;14.70;99.90;;;;;;5077219;28;19920;-51
2022/10/05 09:32:43;;;;;;;;;;;14.80;99.90;;;;;;5091309;28;20446;-50
2022/10/05 09:35:20;;;;;;;;;;;14.90;99.90;;;;;;5087851;28;20357;-49
2022/10/05 09:37:53;;;;;;;;;;;14.90;99.90;;;;;;5091307;28;20018;-49
2022/10/05 09:40:40;;;;;;;;;;;14.80;99.90;;;;;;5090549;28;19951;-49
2022/10/05 09:43:25;;;;;;;;;;;14.80;99.90;;;;;;5087361;28;19924;-49
2022/10/05 09:46:07;;;;;;;;;;;14.90;99.90;;;;;;5086197;28;19981;-50
2022/10/05 09:48:45;;;;;;;;;;;15.20;99.90;;;;;;5093744;28;19920;-50
2022/10/05 09:51:47;;;;;;;;;;;15.50;99.90;;;;;;5093813;28;19970;-52
2022/10/05 09:54:17;;;;;;;;;;;15.50;99.90;;;;;;5006627;28;20344;-50
2022/10/05 09:56:46;;;;;;;;;;;15.50;99.90;;;;;;5079979;28;19969;-50
2022/10/05 09:59:33;;;;;;;;;;;15.70;99.90;;;;;;5093361;28;20026;-52
2022/10/05 10:02:10;;;;;;;;;;;15.80;99.90;;;;;;5090100;28;20384;-50
2022/10/05 10:04:37;;;;;;;;;;;15.80;99.90;;;;;;5091253;28;19920;-52
2022/10/05 10:07:04;;;;;;;;;;;16.00;99.90;;;;;;5094639;28;19952;-50
2022/10/05 10:09:33;;;;;;;;;;;16.10;99.90;;;;;;5092145;28;19924;-51
2022/10/05 10:12:22;;;;;;;;;;;16.10;99.90;;;;;;5094263;28;20397;-49
2022/10/05 10:15:08;;;;;;;;;;;16.30;99.90;;;;;;5073422;28;19921;-50
2022/10/05 10:17:54;;;;;;;;;;;16.40;99.90;;;;;;5077330;28;19954;-50
2022/10/05 10:20:21;;;;;;;;;;;16.30;99.90;;;;;;5092524;28;19923;-49
2022/10/05 10:23:11;;;;;;;;;;;16.30;99.90;;;;;;5092929;28;19923;-49
2022/10/05 10:25:53;;;;;;;;;;;16.30;99.90;;;;;;5093484;28;20330;-49
2022/10/05 10:28:47;;;;;;;;;;;16.20;99.90;;;;;;5089856;28;19954;-51
2022/10/05 10:31:22;;;;;;;;;;;16.40;99.90;;;;;;5077645;28;20430;-49
2022/10/05 10:33:49;;;;;;;;;;;16.50;99.90;;;;;;5073270;28;19920;-49
2022/10/05 10:36:17;;;;;;;;;;;16.70;99.90;;;;;;5081902;28;19962;-50
2022/10/05 10:38:53;;;;;;;;;;;16.80;99.90;;;;;;5093755;28;19947;-52
2022/10/05 10:41:26;;;;;;;;;;;16.90;99.90;;;;;;5091964;28;20015;-50
2022/10/05 10:44:02;;;;;;;;;;;17.00;99.90;;;;;;5090373;28;19963;-53
2022/10/05 10:46:44;;;;;;;;;;;16.90;99.90;;;;;;5092580;28;19962;-48
2022/10/05 10:49:29;;;;;;;;;;;16.90;99.90;;;;;;5093809;28;19954;-52
2022/10/05 10:52:08;;;;;;;;;;;17.10;99.90;;;;;;5087230;28;20360;-50
2022/10/05 10:54:45;;;;;;;;;;;17.10;99.90;;;;;;5083917;28;19955;-53
2022/10/05 10:57:15;;;;;;;;;;;17.10;99.90;;;;;;5090910;28;19951;-50
2022/10/05 10:59:42;;;;;;;;;;;17.20;99.90;;;;;;5093260;28;20384;-51
2022/10/05 11:02:32;;;;;;;;;;;17.40;99.90;;;;;;5092082;28;19955;-52
2022/10/05 11:05:07;;;;;;;;;;;17.70;99.90;;;;;;5090325;28;19920;-50
2022/10/05 11:07:39;;;;;;;;;;;17.80;99.90;;;;;;5093005;28;20392;-50
2022/10/05 11:10:24;;;;;;;;;;;17.80;99.90;;;;;;5091238;28;19932;-52
2022/10/05 11:13:10;;;;;;;;;;;17.80;99.90;;;;;;5093207;28;19920;-52
2022/10/05 11:15:55;;;;;;;;;;;18.00;99.90;;;;;;5092008;28;19948;-49
2022/10/05 11:18:48;;;;;;;;;;;18.00;99.90;;;;;;5091066;28;19934;-51
2022/10/05 11:21:35;;;;;;;;;;;17.90;99.90;;;;;;5091948;28;19955;-49
2022/10/05 11:24:21;;;;;;;;;;;18.00;99.90;;;;;;5093122;28;20310;-49
2022/10/05 11:27:04;;;;;;;;;;;18.00;99.90;;;;;;5076146;28;19966;-51
2022/10/05 11:29:58;;;;;;;;;;;18.10;99.90;;;;;;5091705;28;19923;-50
2022/10/05 11:32:45;;;;;;;;;;;18.10;99.90;;;;;;5092234;28;20513;-53
2022/10/05 11:35:30;;;;;;;;;;;18.20;99.90;;;;;;5089636;28;19971;-49
2022/10/05 11:38:16;;;;;;;;;;;18.20;99.90;;;;;;5092806;28;19942;-50
2022/10/05 11:41:01;;;;;;;;;;;18.30;99.90;;;;;;5090978;28;19986;-52
2022/10/05 11:43:27;;;;;;;;;;;18.30;99.90;;;;;;5089143;28;19924;-52
2022/10/05 11:45:59;;;;;;;;;;;18.20;99.90;;;;;;5088301;28;19966;-52
2022/10/05 11:48:45;;;;;;;;;;;18.40;99.90;;;;;;5091725;28;19927;-52
2022/10/05 11:51:29;;;;;;;;;;;18.50;99.90;;;;;;5092493;28;19930;-49
2022/10/05 11:54:08;;;;;;;;;;;18.70;99.90;;;;;;5086612;28;20196;-50
2022/10/05 11:56:38;;;;;;;;;;;18.80;99.90;;;;;;5092515;28;19959;-50
2022/10/05 11:59:25;;;;;;;;;;;18.90;99.90;;;;;;5085390;28;19924;-50
2022/10/05 12:01:57;;;;;;;;;;;19.00;99.90;;;;;;5087013;28;19955;-49
2022/10/05 12:04:35;;;;;;;;;;;19.00;99.90;;;;;;5090607;28;20396;-51
2022/10/05 12:07:08;;;;;;;;;;;19.00;99.90;;;;;;5091477;28;20343;-51
2022/10/05 12:10:13;;;;;;;;;;;18.90;99.90;;;;;;5078424;28;19966;-54
2022/10/05 12:12:48;;;;;;;;;;;19.00;99.90;;;;;;5091435;28;19924;-50
2022/10/05 12:15:18;;;;;;;;;;;19.30;99.90;;;;;;5091306;28;19924;-52
2022/10/05 12:17:58;;;;;;;;;;;19.50;99.90;;;;;;5087949;28;19988;-49
2022/10/05 12:20:36;;;;;;;;;;;19.70;99.90;;;;;;5090363;28;19997;-52
2022/10/05 12:23:09;;;;;;;;;;;19.80;99.90;;;;;;5091349;28;19945;-52
2022/10/05 12:26:09;;;;;;;;;;;19.90;99.90;;;;;;5089272;28;19970;-52
2022/10/05 12:28:41;;;;;;;;;;;19.80;99.90;;;;;;5031598;28;20315;-51
2022/10/05 12:31:13;;;;;;;;;;;19.90;99.90;;;;;;5091338;28;19995;-50
2022/10/05 12:33:49;;;;;;;;;;;19.90;99.90;;;;;;5087871;28;19931;-50
2022/10/05 12:36:18;;;;;;;;;;;20.10;99.90;;;;;;5086871;28;20385;-51
2022/10/05 12:38:51;;;;;;;;;;;20.00;99.90;;;;;;5090592;28;19920;-53
2022/10/05 12:41:17;;;;;;;;;;;20.00;99.90;;;;;;5092039;28;19970;-50
2022/10/05 12:43:50;;;;;;;;;;;20.10;99.90;;;;;;5088462;28;20018;-50
2022/10/05 12:46:23;;;;;;;;;;;20.30;99.90;;;;;;5082166;28;19970;-50
2022/10/05 12:48:51;;;;;;;;;;;20.40;99.90;;;;;;5090505;28;19948;-52
2022/10/05 12:51:36;;;;;;;;;;;20.40;99.90;;;;;;5091559;28;19920;-50
2022/10/05 12:54:18;;;;;;;;;;;20.60;99.90;;;;;;5084465;28;19963;-50
2022/10/05 12:56:48;;;;;;;;;;;20.60;99.90;;;;;;5090920;28;19966;-50
2022/10/05 12:59:37;;;;;;;;;;;20.80;99.90;;;;;;5090941;28;19959;-50
2022/10/05 13:02:19;;;;;;;;;;;20.80;99.90;;;;;;5088725;28;20440;-52
2022/10/05 13:04:46;;;;;;;;;;;20.90;99.90;;;;;;5091124;28;19920;-52
2022/10/05 13:07:32;;;;;;;;;;;20.90;99.70;;;;;;5088782;28;20416;-53
2022/10/05 13:10:17;;;;;;;;;;;21.00;99.90;;;;;;5090395;28;19920;-53
2022/10/05 13:12:56;;;;;;;;;;;21.20;99.90;;;;;;5090248;28;19962;-52
2022/10/05 13:15:27;;;;;;;;;;;21.30;99.50;;;;;;5090658;28;19978;-52
2022/10/05 13:18:00;;;;;;;;;;;21.40;99.60;;;;;;5089948;28;19968;-54
2022/10/05 13:20:42;;;;;;;;;;;21.50;99.60;;;;;;5090050;28;19963;-50
2022/10/05 13:23:12;;;;;;;;;;;21.70;99.90;;;;;;5094665;28;19927;-51
2022/10/05 13:25:44;;;;;;;;;;;21.70;98.10;;;;;;5094573;28;19981;-50
2022/10/05 13:28:20;;;;;;;;;;;21.50;98.80;;;;;;5087590;28;19947;-53
2022/10/05 13:31:07;;;;;;;;;;;21.50;98.90;;;;;;5094591;28;19920;-52
2022/10/05 13:33:53;;;;;;;;;;;21.60;99.90;;;;;;5094947;28;19959;-51
2022/10/05 13:36:25;;;;;;;;;;;21.70;99.90;;;;;;5088209;28;19967;-53
2022/10/05 13:38:56;;;;;;;;;;;21.80;99.90;;;;;;5093919;28;19997;-50
2022/10/05 13:41:23;;;;;;;;;;;21.70;99.90;;;;;;5092976;28;19970;-50
2022/10/05 13:44:09;;;;;;;;;;;21.70;99.90;;;;;;5094520;28;19920;-51
2022/10/05 13:46:46;;;;;;;;;;;21.70;99.90;;;;;;5089197;28;19920;-52
2022/10/05 13:49:27;;;;;;;;;;;21.70;99.90;;;;;;5094184;28;19962;-50
2022/10/05 13:52:13;;;;;;;;;;;21.30;99.80;;;;;;5094090;28;19928;-50
2022/10/05 13:54:58;;;;;;;;;;;21.40;99.90;;;;;;5092751;28;19959;-50
2022/10/05 13:57:25;;;;;;;;;;;21.50;99.90;;;;;;5093550;28;19947;-50
2022/10/05 14:00:12;;;;;;;;;;;21.50;99.90;;;;;;5093853;28;20344;-53
2022/10/05 14:02:40;;;;;;;;;;;21.50;99.90;;;;;;5088889;28;19920;-50
2022/10/05 14:05:13;;;;;;;;;;;21.70;99.90;;;;;;5092781;28;19962;-51
2022/10/05 14:07:52;;;;;;;;;;;21.60;99.90;;;;;;5094372;28;20300;-51
2022/10/05 14:10:34;;;;;;;;;;;21.70;99.90;;;;;;5092342;28;19924;-54
2022/10/05 14:13:08;;;;;;;;;;;21.70;99.90;;;;;;5093922;28;20019;-49
2022/10/05 14:15:34;;;;;;;;;;;21.70;99.90;;;;;;5092697;28;19920;-46
2022/10/05 14:18:21;;;;;;;;;;;21.70;99.90;;;;;;5116074;22;20407;-50
2022/10/05 14:20:57;;;;;;;;;;;21.70;99.90;;;;;;5092491;28;19989;-52
2022/10/05 14:23:25;;;;;;;;;;;21.60;99.90;;;;;;5093949;28;19923;-51
2022/10/05 14:25:53;;;;;;;;;;;21.50;99.90;;;;;;5098093;28;20443;-52
2022/10/05 14:28:23;;;;;;;;;;;21.40;99.90;;;;;;5110269;28;20322;-50
2022/10/05 14:30:57;;;;;;;;;;;21.30;99.90;;;;;;5108721;28;20303;-50
2022/10/05 14:33:26;;;;;;;;;;;21.10;99.90;;;;;;5111908;28;19923;-50
2022/10/05 14:35:54;;;;;;;;;;;21.00;99.90;;;;;;5114024;28;19969;-51
2022/10/05 14:38:21;;;;;;;;;;;21.00;99.90;;;;;;5101297;28;20027;-52
2022/10/05 14:41:06;;;;;;;;;;;20.90;99.90;;;;;;5093894;28;19927;-51
2022/10/05 14:43:33;;;;;;;;;;;20.80;99.90;;;;;;5091410;28;19982;-52
2022/10/05 14:46:02;;;;;;;;;;;20.70;99.90;;;;;;5093528;28;19951;-50
2022/10/05 14:48:39;;;;;;;;;;;20.50;99.90;;;;;;5091639;28;19986;-53
2022/10/05 14:51:10;;;;;;;;;;;20.40;99.90;;;;;;5093838;28;19920;-50
2022/10/05 14:53:37;;;;;;;;;;;20.40;99.90;;;;;;5096946;28;20003;-51
2022/10/05 14:56:22;;;;;;;;;;;20.30;99.90;;;;;;5093252;28;19951;-54
2022/10/05 14:58:58;;;;;;;;;;;20.30;99.90;;;;;;5096544;28;20262;-54
2022/10/05 15:01:26;;;;;;;;;;;20.30;99.90;;;;;;5093164;28;19963;-51
2022/10/05 15:03:53;;;;;;;;;;;20.20;99.90;;;;;;5092091;28;19920;-54
2022/10/05 15:06:33;;;;;;;;;;;20.10;99.90;;;;;;5092824;28;19964;-50
2022/10/05 15:09:35;;;;;;;;;;;20.10;99.90;;;;;;5092814;28;20015;-50
2022/10/05 15:12:02;;;;;;;;;;;20.00;99.90;;;;;;5012973;28;20381;-51
2022/10/05 15:14:30;;;;;;;;;;;19.90;99.90;;;;;;5080661;28;19924;-50
2022/10/05 15:17:01;;;;;;;;;;;19.80;99.90;;;;;;5090672;28;19971;-53
2022/10/05 15:19:37;;;;;;;;;;;19.70;99.90;;;;;;5093267;28;19920;-53